OHDAC EFPO-EFKK
Flight info
| Callsign | OHDAC |
|---|---|
| Flight time | N/A |
| Altitude | 8000 |
| Route | AHDG/30 OSDIL DCT DIVEG T255 ATPEL |
| Aircraft | DA42/L-SBDGRY/S |
Departure
| Time | 2026-04-27 14:05 |
|---|---|
| Airport | Pori Airport (EFPO) |
Arrival
| Time | N/A |
|---|---|
| Airport | Kokkola-Pietarsaari Airport (EFKK) |
| Time | Latitude | Longitude | Altitude | Speed | Heading |
|---|---|---|---|---|---|
| 2026-04-27 14:00 | 61.46021 | 21.78630 | 42 ft | 0 kts | 310° |
| 2026-04-27 14:03 | 61.46067 | 21.78718 | 42 ft | 20 kts | 94° |
| 2026-04-27 14:04 | 61.46030 | 21.78965 | 41 ft | 17 kts | 43° |
| 2026-04-27 14:04 | 61.46093 | 21.79095 | 41 ft | 20 kts | 40° |
| 2026-04-27 14:04 | 61.46222 | 21.79348 | 40 ft | 29 kts | 41° |
| 2026-04-27 14:04 | 61.46367 | 21.79421 | 40 ft | 27 kts | 304° |
| 2026-04-27 14:05 | 61.46599 | 21.78746 | 70 ft | 74 kts | 310° |
| 2026-04-27 14:05 | 61.46901 | 21.77900 | 317 ft | 74 kts | 306° |
| 2026-04-27 14:05 | 61.47169 | 21.77034 | 672 ft | 65 kts | 324° |
| 2026-04-27 14:05 | 61.47561 | 21.76869 | 1097 ft | 59 kts | 358° |
| 2026-04-27 14:06 | 61.47922 | 21.76952 | 1502 ft | 53 kts | 2° |
| 2026-04-27 14:06 | 61.48251 | 21.77072 | 1894 ft | 47 kts | 5° |
| 2026-04-27 14:06 | 61.48575 | 21.77219 | 2244 ft | 49 kts | 7° |
| 2026-04-27 14:06 | 61.48887 | 21.77385 | 2595 ft | 48 kts | 8° |
| 2026-04-27 14:07 | 61.49202 | 21.77564 | 2926 ft | 49 kts | 10° |
| 2026-04-27 14:07 | 61.49519 | 21.77777 | 3252 ft | 49 kts | 11° |
| 2026-04-27 14:07 | 61.49833 | 21.77995 | 3583 ft | 48 kts | 12° |
| 2026-04-27 14:07 | 61.50145 | 21.78219 | 3898 ft | 49 kts | 12° |
| 2026-04-27 14:08 | 61.50454 | 21.78451 | 4221 ft | 49 kts | 12° |
| 2026-04-27 14:08 | 61.50768 | 21.78692 | 4544 ft | 49 kts | 12° |
| 2026-04-27 14:08 | 61.51086 | 21.78939 | 4871 ft | 49 kts | 13° |
| 2026-04-27 14:08 | 61.51400 | 21.79188 | 5186 ft | 50 kts | 13° |
| 2026-04-27 14:09 | 61.51717 | 21.79443 | 5514 ft | 49 kts | 14° |
| 2026-04-27 14:09 | 61.52034 | 21.79700 | 5829 ft | 50 kts | 13° |
| 2026-04-27 14:09 | 61.52354 | 21.79962 | 6153 ft | 51 kts | 14° |
| 2026-04-27 14:09 | 61.52669 | 21.80221 | 6474 ft | 51 kts | 14° |
| 2026-04-27 14:10 | 61.52990 | 21.80486 | 6796 ft | 51 kts | 14° |
| 2026-04-27 14:10 | 61.53313 | 21.80754 | 7132 ft | 50 kts | 14° |
| 2026-04-27 14:10 | 61.53634 | 21.81019 | 7444 ft | 51 kts | 14° |
| 2026-04-27 14:10 | 61.53962 | 21.81293 | 7770 ft | 52 kts | 14° |
| 2026-04-27 14:11 | 61.54293 | 21.81569 | 8086 ft | 53 kts | 14° |
| 2026-04-27 14:11 | 61.54624 | 21.81847 | 8413 ft | 53 kts | 15° |
| 2026-04-27 14:11 | 61.54967 | 21.82132 | 8731 ft | 54 kts | 14° |
| 2026-04-27 14:11 | 61.55309 | 21.82418 | 9043 ft | 56 kts | 15° |
| 2026-04-27 14:12 | 61.55667 | 21.82717 | 9379 ft | 56 kts | 15° |
| 2026-04-27 14:12 | 61.56021 | 21.83013 | 9695 ft | 57 kts | 16° |
| 2026-04-27 14:12 | 61.56384 | 21.83317 | 10016 ft | 58 kts | 16° |
| 2026-04-27 14:12 | 61.56836 | 21.83685 | 10114 ft | 84 kts | 17° |
| 2026-04-27 14:13 | 61.57467 | 21.84216 | 10122 ft | 109 kts | 18° |
| 2026-04-27 14:13 | 61.58215 | 21.84853 | 10110 ft | 124 kts | 19° |
| 2026-04-27 14:13 | 61.59050 | 21.85566 | 10100 ft | 133 kts | 19° |
| 2026-04-27 14:13 | 61.59927 | 21.86312 | 10094 ft | 138 kts | 19° |
| 2026-04-27 14:14 | 61.60834 | 21.87019 | 10089 ft | 140 kts | 11° |
| 2026-04-27 14:14 | 61.61787 | 21.87408 | 10095 ft | 141 kts | 10° |
| 2026-04-27 14:14 | 61.62759 | 21.87776 | 10090 ft | 142 kts | 9° |
| 2026-04-27 14:14 | 61.63737 | 21.88130 | 10092 ft | 143 kts | 9° |
| 2026-04-27 14:15 | 61.64712 | 21.88478 | 10093 ft | 143 kts | 9° |
| 2026-04-27 14:15 | 61.65693 | 21.88824 | 10089 ft | 143 kts | 9° |
| 2026-04-27 14:15 | 61.66676 | 21.89168 | 10092 ft | 142 kts | 9° |
| 2026-04-27 14:15 | 61.67646 | 21.89508 | 10091 ft | 143 kts | 9° |
| 2026-04-27 14:16 | 61.68620 | 21.89850 | 10086 ft | 142 kts | 9° |
| 2026-04-27 14:16 | 61.69596 | 21.90194 | 10086 ft | 142 kts | 9° |
| 2026-04-27 14:16 | 61.70579 | 21.90539 | 10087 ft | 142 kts | 9° |
| 2026-04-27 14:16 | 61.71551 | 21.90881 | 10088 ft | 142 kts | 9° |
| 2026-04-27 14:17 | 61.72527 | 21.91225 | 10087 ft | 142 kts | 9° |
| 2026-04-27 14:17 | 61.73514 | 21.91573 | 10089 ft | 142 kts | 9° |
| 2026-04-27 14:17 | 61.74488 | 21.91916 | 10086 ft | 142 kts | 9° |
| 2026-04-27 14:17 | 61.75460 | 21.92258 | 10084 ft | 142 kts | 8° |
| 2026-04-27 14:18 | 61.76437 | 21.92603 | 10080 ft | 142 kts | 8° |
| 2026-04-27 14:18 | 61.77407 | 21.92943 | 10081 ft | 142 kts | 9° |
| 2026-04-27 14:18 | 61.78393 | 21.93290 | 10082 ft | 143 kts | 9° |
| 2026-04-27 14:18 | 61.79374 | 21.93636 | 10082 ft | 143 kts | 9° |
| 2026-04-27 14:19 | 61.80345 | 21.93981 | 10086 ft | 143 kts | 9° |
| 2026-04-27 14:19 | 61.81329 | 21.94329 | 10084 ft | 143 kts | 9° |
| 2026-04-27 14:19 | 61.82306 | 21.94675 | 10080 ft | 143 kts | 9° |
| 2026-04-27 14:19 | 61.83283 | 21.95020 | 10082 ft | 143 kts | 9° |
| 2026-04-27 14:20 | 61.84276 | 21.95373 | 10086 ft | 144 kts | 9° |
| 2026-04-27 14:20 | 61.85263 | 21.95725 | 10084 ft | 144 kts | 9° |
| 2026-04-27 14:20 | 61.86240 | 21.96072 | 10081 ft | 144 kts | 9° |
| 2026-04-27 14:20 | 61.87218 | 21.96419 | 10086 ft | 143 kts | 9° |
| 2026-04-27 14:21 | 61.88203 | 21.96769 | 10080 ft | 142 kts | 8° |
| 2026-04-27 14:21 | 61.89177 | 21.97115 | 10081 ft | 142 kts | 8° |
| 2026-04-27 14:21 | 61.90157 | 21.97462 | 10082 ft | 142 kts | 8° |
| 2026-04-27 14:21 | 61.91122 | 21.97806 | 10079 ft | 142 kts | 8° |
| 2026-04-27 14:22 | 61.92101 | 21.98154 | 10077 ft | 141 kts | 8° |
| 2026-04-27 14:22 | 61.93059 | 21.98495 | 10076 ft | 141 kts | 9° |
| 2026-04-27 14:22 | 61.94037 | 21.98843 | 10079 ft | 141 kts | 9° |
| 2026-04-27 14:22 | 61.94999 | 21.99188 | 10079 ft | 141 kts | 9° |
| 2026-04-27 14:23 | 61.95962 | 21.99535 | 10080 ft | 141 kts | 9° |
| 2026-04-27 14:23 | 61.96939 | 21.99886 | 10077 ft | 141 kts | 9° |
| 2026-04-27 14:23 | 61.97903 | 22.00232 | 10078 ft | 141 kts | 9° |
| 2026-04-27 14:23 | 61.98882 | 22.00583 | 10082 ft | 141 kts | 9° |
| 2026-04-27 14:24 | 61.99850 | 22.00930 | 10085 ft | 141 kts | 9° |
| 2026-04-27 14:24 | 62.00814 | 22.01279 | 10075 ft | 141 kts | 9° |
| 2026-04-27 14:24 | 62.01778 | 22.01625 | 10073 ft | 141 kts | 9° |
| 2026-04-27 14:24 | 62.02746 | 22.01973 | 10079 ft | 141 kts | 9° |
| 2026-04-27 14:25 | 62.03713 | 22.02321 | 10077 ft | 141 kts | 8° |
| 2026-04-27 14:25 | 62.04686 | 22.02669 | 10076 ft | 141 kts | 8° |
| 2026-04-27 14:25 | 62.05662 | 22.03017 | 10077 ft | 141 kts | 9° |
| 2026-04-27 14:25 | 62.06625 | 22.03363 | 10083 ft | 141 kts | 9° |
| 2026-04-27 14:26 | 62.07599 | 22.03714 | 10087 ft | 141 kts | 9° |
| 2026-04-27 14:26 | 62.08561 | 22.04060 | 10082 ft | 141 kts | 9° |
| 2026-04-27 14:26 | 62.09530 | 22.04410 | 10078 ft | 141 kts | 9° |
| 2026-04-27 14:26 | 62.10492 | 22.04756 | 10082 ft | 141 kts | 9° |
| 2026-04-27 14:27 | 62.11464 | 22.05109 | 10082 ft | 142 kts | 9° |
| 2026-04-27 14:27 | 62.12432 | 22.05460 | 10081 ft | 142 kts | 9° |
| 2026-04-27 14:27 | 62.13412 | 22.05815 | 10081 ft | 142 kts | 9° |
| 2026-04-27 14:27 | 62.14385 | 22.06167 | 10082 ft | 142 kts | 8° |
| 2026-04-27 14:28 | 62.15358 | 22.06519 | 10083 ft | 142 kts | 8° |
| 2026-04-27 14:28 | 62.16333 | 22.06871 | 10085 ft | 142 kts | 8° |
| 2026-04-27 14:28 | 62.17310 | 22.07224 | 10085 ft | 142 kts | 8° |
| 2026-04-27 14:28 | 62.18277 | 22.07572 | 10086 ft | 142 kts | 9° |
| 2026-04-27 14:29 | 62.19251 | 22.07926 | 10086 ft | 141 kts | 9° |
| 2026-04-27 14:29 | 62.20217 | 22.08276 | 10087 ft | 141 kts | 9° |
| 2026-04-27 14:29 | 62.21184 | 22.08629 | 10085 ft | 141 kts | 9° |
| 2026-04-27 14:29 | 62.22155 | 22.08982 | 10084 ft | 141 kts | 9° |
| 2026-04-27 14:30 | 62.23121 | 22.09333 | 10084 ft | 141 kts | 9° |
| 2026-04-27 14:30 | 62.24087 | 22.09686 | 10083 ft | 141 kts | 9° |
| 2026-04-27 14:30 | 62.25059 | 22.10041 | 10081 ft | 141 kts | 8° |
| 2026-04-27 14:30 | 62.26026 | 22.10393 | 10081 ft | 141 kts | 8° |
| 2026-04-27 14:31 | 62.26979 | 22.10742 | 10082 ft | 140 kts | 8° |
| 2026-04-27 14:31 | 62.27945 | 22.11094 | 10080 ft | 140 kts | 8° |
| 2026-04-27 14:31 | 62.28905 | 22.11442 | 10078 ft | 140 kts | 8° |
| 2026-04-27 14:31 | 62.29874 | 22.11797 | 10083 ft | 141 kts | 8° |
| 2026-04-27 14:32 | 62.30838 | 22.12149 | 10085 ft | 141 kts | 8° |
| 2026-04-27 14:32 | 62.31797 | 22.12500 | 10084 ft | 140 kts | 8° |
| 2026-04-27 14:32 | 62.32762 | 22.12852 | 10085 ft | 140 kts | 8° |
| 2026-04-27 14:32 | 62.33722 | 22.13202 | 10085 ft | 140 kts | 8° |
| 2026-04-27 14:33 | 62.34683 | 22.13553 | 10085 ft | 140 kts | 9° |
| 2026-04-27 14:33 | 62.35642 | 22.13906 | 10086 ft | 140 kts | 9° |
| 2026-04-27 14:33 | 62.36602 | 22.14258 | 10087 ft | 140 kts | 9° |
| 2026-04-27 14:33 | 62.37549 | 22.14607 | 10085 ft | 140 kts | 9° |
| 2026-04-27 14:34 | 62.38504 | 22.14959 | 10084 ft | 140 kts | 9° |
| 2026-04-27 14:34 | 62.39463 | 22.15312 | 10084 ft | 140 kts | 8° |
| 2026-04-27 14:34 | 62.40431 | 22.15670 | 10088 ft | 140 kts | 8° |
| 2026-04-27 14:34 | 62.41382 | 22.16021 | 10090 ft | 140 kts | 8° |
| 2026-04-27 14:35 | 62.42337 | 22.16374 | 10093 ft | 140 kts | 8° |
| 2026-04-27 14:35 | 62.43299 | 22.16727 | 10091 ft | 140 kts | 8° |
| 2026-04-27 14:35 | 62.44254 | 22.17076 | 10093 ft | 140 kts | 8° |
| 2026-04-27 14:35 | 62.45219 | 22.17433 | 10093 ft | 139 kts | 8° |
| 2026-04-27 14:36 | 62.46176 | 22.17785 | 10092 ft | 139 kts | 8° |
| 2026-04-27 14:36 | 62.47119 | 22.18135 | 10092 ft | 138 kts | 8° |
| 2026-04-27 14:36 | 62.48070 | 22.18486 | 10094 ft | 138 kts | 8° |
| 2026-04-27 14:36 | 62.49017 | 22.18836 | 10096 ft | 138 kts | 8° |
| 2026-04-27 14:37 | 62.49969 | 22.19189 | 10101 ft | 138 kts | 8° |
| 2026-04-27 14:37 | 62.50909 | 22.19540 | 10098 ft | 138 kts | 8° |
| 2026-04-27 14:37 | 62.51859 | 22.19892 | 10097 ft | 138 kts | 8° |
| 2026-04-27 14:37 | 62.52802 | 22.20243 | 10095 ft | 138 kts | 7° |
| 2026-04-27 14:38 | 62.53751 | 22.20594 | 10092 ft | 138 kts | 8° |
| 2026-04-27 14:38 | 62.54695 | 22.20943 | 10091 ft | 138 kts | 8° |
| 2026-04-27 14:38 | 62.55642 | 22.21294 | 10090 ft | 138 kts | 8° |
| 2026-04-27 14:38 | 62.56593 | 22.21648 | 10090 ft | 138 kts | 8° |
| 2026-04-27 14:39 | 62.57541 | 22.22001 | 10090 ft | 138 kts | 8° |
| 2026-04-27 14:39 | 62.58478 | 22.22349 | 10090 ft | 138 kts | 8° |
| 2026-04-27 14:39 | 62.59421 | 22.22702 | 10090 ft | 138 kts | 8° |
| 2026-04-27 14:39 | 62.60368 | 22.23056 | 10093 ft | 138 kts | 8° |
| 2026-04-27 14:40 | 62.61318 | 22.23411 | 10097 ft | 138 kts | 8° |
| 2026-04-27 14:40 | 62.62262 | 22.23764 | 10094 ft | 137 kts | 8° |
| 2026-04-27 14:40 | 62.63195 | 22.24111 | 10092 ft | 137 kts | 8° |
| 2026-04-27 14:40 | 62.64145 | 22.24466 | 10091 ft | 137 kts | 8° |
| 2026-04-27 14:41 | 62.65086 | 22.24818 | 10092 ft | 137 kts | 8° |
| 2026-04-27 14:41 | 62.66034 | 22.25175 | 10093 ft | 137 kts | 8° |
| 2026-04-27 14:41 | 62.66968 | 22.25527 | 10093 ft | 137 kts | 8° |
| 2026-04-27 14:41 | 62.67910 | 22.25880 | 10094 ft | 137 kts | 7° |
| 2026-04-27 14:42 | 62.68847 | 22.26233 | 10097 ft | 137 kts | 7° |
| 2026-04-27 14:42 | 62.69788 | 22.26585 | 10098 ft | 136 kts | 7° |
| 2026-04-27 14:42 | 62.70725 | 22.26935 | 10098 ft | 136 kts | 7° |
| 2026-04-27 14:42 | 62.71648 | 22.27281 | 10097 ft | 136 kts | 8° |
| 2026-04-27 14:43 | 62.72587 | 22.27631 | 10094 ft | 136 kts | 8° |
| 2026-04-27 14:43 | 62.73514 | 22.27982 | 10095 ft | 136 kts | 8° |
| 2026-04-27 14:43 | 62.74447 | 22.28333 | 10095 ft | 136 kts | 8° |
| 2026-04-27 14:43 | 62.75374 | 22.28683 | 10095 ft | 136 kts | 8° |
| 2026-04-27 14:44 | 62.76309 | 22.29036 | 10099 ft | 136 kts | 8° |
| 2026-04-27 14:44 | 62.77234 | 22.29387 | 10101 ft | 136 kts | 7° |
| 2026-04-27 14:44 | 62.78168 | 22.29739 | 10097 ft | 136 kts | 7° |
| 2026-04-27 14:44 | 62.79095 | 22.30089 | 10097 ft | 136 kts | 7° |
| 2026-04-27 14:45 | 62.80033 | 22.30444 | 10095 ft | 136 kts | 7° |
| 2026-04-27 14:45 | 62.80962 | 22.30795 | 10095 ft | 136 kts | 7° |
| 2026-04-27 14:45 | 62.81889 | 22.31146 | 10097 ft | 136 kts | 7° |
| 2026-04-27 14:45 | 62.82823 | 22.31499 | 10098 ft | 136 kts | 7° |
| 2026-04-27 14:46 | 62.83752 | 22.31852 | 10100 ft | 136 kts | 7° |
| 2026-04-27 14:46 | 62.84677 | 22.32201 | 10100 ft | 136 kts | 7° |
| 2026-04-27 14:46 | 62.85610 | 22.32555 | 10102 ft | 136 kts | 7° |
| 2026-04-27 14:46 | 62.86544 | 22.32908 | 10100 ft | 135 kts | 7° |
| 2026-04-27 14:47 | 62.87463 | 22.33259 | 10100 ft | 135 kts | 7° |
| 2026-04-27 14:47 | 62.88398 | 22.33613 | 10101 ft | 135 kts | 8° |
| 2026-04-27 14:47 | 62.89329 | 22.33969 | 10101 ft | 135 kts | 7° |
| 2026-04-27 14:47 | 62.90248 | 22.34319 | 10104 ft | 134 kts | 7° |
| 2026-04-27 14:48 | 62.91172 | 22.34672 | 10108 ft | 134 kts | 7° |
| 2026-04-27 14:48 | 62.93001 | 22.35371 | 10105 ft | 134 kts | 7° |
| 2026-04-27 14:48 | 62.93928 | 22.35724 | 10103 ft | 135 kts | 7° |
| 2026-04-27 14:49 | 62.94850 | 22.36078 | 10102 ft | 135 kts | 7° |
| 2026-04-27 14:49 | 62.95778 | 22.36429 | 10102 ft | 135 kts | 7° |
| 2026-04-27 14:49 | 62.96692 | 22.36778 | 10101 ft | 135 kts | 7° |
| 2026-04-27 14:49 | 62.97622 | 22.37133 | 10100 ft | 135 kts | 7° |
| 2026-04-27 14:50 | 62.98540 | 22.37484 | 10102 ft | 135 kts | 7° |
| 2026-04-27 14:50 | 62.99470 | 22.37842 | 10104 ft | 134 kts | 7° |
| 2026-04-27 14:50 | 63.00389 | 22.38194 | 10106 ft | 135 kts | 7° |
| 2026-04-27 14:50 | 63.01304 | 22.38544 | 10104 ft | 134 kts | 7° |
| 2026-04-27 14:51 | 63.02234 | 22.38901 | 10102 ft | 135 kts | 7° |
| 2026-04-27 14:51 | 63.03153 | 22.39255 | 10103 ft | 135 kts | 7° |
| 2026-04-27 14:51 | 63.04071 | 22.39609 | 10103 ft | 135 kts | 7° |
| 2026-04-27 14:51 | 63.04694 | 22.39850 | 10105 ft | 135 kts | 7° |
| 2026-04-27 14:52 | 63.05934 | 22.40326 | 10106 ft | 136 kts | 7° |
| 2026-04-27 14:52 | 63.06860 | 22.40684 | 10104 ft | 136 kts | 7° |
| 2026-04-27 14:52 | 63.07794 | 22.41045 | 10106 ft | 135 kts | 7° |
| 2026-04-27 14:52 | 63.08712 | 22.41397 | 10106 ft | 135 kts | 7° |
| 2026-04-27 14:53 | 63.09647 | 22.41758 | 10107 ft | 135 kts | 7° |
| 2026-04-27 14:53 | 63.10572 | 22.42114 | 10112 ft | 135 kts | 7° |
| 2026-04-27 14:53 | 63.11512 | 22.42475 | 10112 ft | 136 kts | 7° |
| 2026-04-27 14:53 | 63.12439 | 22.42832 | 10113 ft | 137 kts | 8° |
| 2026-04-27 14:54 | 63.13383 | 22.43196 | 10111 ft | 137 kts | 8° |
| 2026-04-27 14:54 | 63.14321 | 22.43561 | 10113 ft | 137 kts | 8° |
| 2026-04-27 14:54 | 63.15263 | 22.43928 | 10115 ft | 137 kts | 7° |
| 2026-04-27 14:54 | 63.16198 | 22.44288 | 10114 ft | 137 kts | 8° |
| 2026-04-27 14:55 | 63.17133 | 22.44656 | 10118 ft | 137 kts | 7° |
| 2026-04-27 14:55 | 63.18073 | 22.45021 | 10119 ft | 137 kts | 7° |
| 2026-04-27 14:55 | 63.19014 | 22.45390 | 10125 ft | 137 kts | 7° |
| 2026-04-27 14:55 | 63.19958 | 22.45756 | 10124 ft | 137 kts | 7° |
| 2026-04-27 14:56 | 63.20900 | 22.46119 | 10126 ft | 137 kts | 7° |
| 2026-04-27 14:56 | 63.21841 | 22.46487 | 10117 ft | 137 kts | 7° |
| 2026-04-27 14:56 | 63.22784 | 22.46851 | 10119 ft | 137 kts | 7° |
| 2026-04-27 14:56 | 63.23715 | 22.47303 | 10111 ft | 140 kts | 19° |
| 2026-04-27 14:57 | 63.24508 | 22.48587 | 10119 ft | 143 kts | 28° |
| 2026-04-27 14:57 | 63.25297 | 22.49950 | 10132 ft | 143 kts | 31° |
| 2026-04-27 14:57 | 63.26070 | 22.51350 | 10148 ft | 143 kts | 32° |
| 2026-04-27 14:57 | 63.26833 | 22.52766 | 10068 ft | 148 kts | 32° |
| 2026-04-27 14:58 | 63.27638 | 22.54278 | 9866 ft | 155 kts | 33° |
| 2026-04-27 14:58 | 63.28465 | 22.55857 | 9635 ft | 159 kts | 33° |
| 2026-04-27 14:58 | 63.29313 | 22.57486 | 9391 ft | 162 kts | 33° |
| 2026-04-27 14:58 | 63.30161 | 22.59121 | 9160 ft | 162 kts | 33° |
| 2026-04-27 14:59 | 63.31018 | 22.60778 | 8918 ft | 163 kts | 33° |
| 2026-04-27 14:59 | 63.31864 | 22.62418 | 8692 ft | 163 kts | 34° |
| 2026-04-27 14:59 | 63.32716 | 22.64074 | 8462 ft | 162 kts | 34° |
| 2026-04-27 14:59 | 63.33541 | 22.65689 | 8224 ft | 156 kts | 34° |
| 2026-04-27 15:00 | 63.34354 | 22.67278 | 7985 ft | 153 kts | 34° |
| 2026-04-27 15:00 | 63.35148 | 22.68830 | 7746 ft | 150 kts | 34° |
| 2026-04-27 15:00 | 63.35923 | 22.70348 | 7506 ft | 148 kts | 34° |
| 2026-04-27 15:00 | 63.36695 | 22.71858 | 7261 ft | 147 kts | 34° |
| 2026-04-27 15:01 | 63.37447 | 22.73334 | 7023 ft | 145 kts | 34° |
| 2026-04-27 15:01 | 63.38220 | 22.74844 | 6800 ft | 150 kts | 34° |
| 2026-04-27 15:01 | 63.39011 | 22.76396 | 6579 ft | 156 kts | 34° |
| 2026-04-27 15:01 | 63.39843 | 22.78031 | 6291 ft | 161 kts | 35° |
| 2026-04-27 15:02 | 63.40684 | 22.79687 | 6007 ft | 164 kts | 35° |
| 2026-04-27 15:02 | 63.41540 | 22.81371 | 5724 ft | 165 kts | 35° |